Latest Coastal Weather Observations for Burnie Port

IDT60701

Issued at 9:51 am EST Friday 29 April 2016 (issued every 10 minutes, with the page automatically refreshed every 10 minutes)

About coastal observations | Map of coastal stations | Coastal observations for TAS | Marine services | Other Formats
Station Details ID: 091344 Name: BURNIE NTC AWS Lat: -41.05 Lon: 145.91 Height: 0.0 m
Data from the previous 72 hours. | See also: Recent months for locations in Tasmania
Date/Time
EST
Temp

°C
Wind Pressure Rain
since 9am
mm
Weather Cloud Vis
km
Sea
Height
m
Swell
Dir
 
Speed
knots
Gust
knots
hPa Trend Height
m
Period
s
Dir
29/09:30am 17.9 SSE 8 11 1014.1 - - - - - - - - -
29/09:00am 17.6 S 6 10 1014.1 - - - - - - - - -
29/08:30am 17.9 SSE 8 11 1014.1 - - - - - - - - -
29/08:00am 16.7 S 7 10 1014.1 - - - - - - - - -
29/07:30am 16.4 S 9 12 1014.3 - - - - - - - - -
29/07:00am 16.3 S 6 7 1014.7 - - - - - - - - -
29/06:30am 16.9 S 4 5 1014.9 - - - - - - - - -
29/06:00am 17.0 SE 5 7 1015.0 - - - - - - - - -
29/05:30am 16.6 S 6 7 1015.0 - - - - - - - - -
29/05:00am 16.8 S 8 12 1015.0 - - - - - - - - -
29/04:30am 17.0 SSE 7 13 1014.9 - - - - - - - - -
29/04:00am 16.6 SSE 7 9 1015.1 - - - - - - - - -
29/03:30am 16.9 SE 7 9 1015.4 - - - - - - - - -
29/03:00am 16.4 SSE 6 7 1015.4 - - - - - - - - -
29/02:30am 16.7 SSE 4 5 1016.1 - - - - - - - - -
29/02:00am 17.1 SE 6 7 1016.0 - - - - - - - - -
29/01:30am 17.2 E 6 9 1016.2 - - - - - - - - -
29/01:00am 17.2 ENE 4 7 1016.9 - - - - - - - - -
29/12:30am 16.1 SSE 4 5 1017.1 - - - - - - - - -
29/12:00am 16.0 SSW 3 4 1017.3 - - - - - - - - -
 
Date/Time
EST
Temp

°C
Wind Pressure Rain
since 9am
mm
Weather Cloud Vis
km
Sea
Height
m
Swell
Dir
 
Speed
knots
Gust
knots
hPa Trend Height
m
Period
s
Dir
28/11:30pm 16.0 S 4 5 1017.3 - - - - - - - - -
28/11:00pm 15.9 SSW 4 5 1017.3 - - - - - - - - -
28/10:30pm 15.9 SSW 4 5 1017.3 - - - - - - - - -
28/10:00pm 15.9 SSW 4 5 1017.4 - - - - - - - - -
28/09:30pm 15.9 SSW 4 5 1017.3 - - - - - - - - -
28/09:00pm 16.1 SSW 4 5 1017.6 - - - - - - - - -
28/08:30pm 16.5 WSW 2 5 1017.5 - - - - - - - - -
28/08:00pm 17.1 W 1 3 1017.2 - - - - - - - - -
28/07:30pm 17.3 WNW 1 3 1017.0 - - - - - - - - -
28/07:00pm 17.3 W 2 4 1016.9 - - - - - - - - -
28/06:30pm 17.3 NW 8 9 1016.6 - - - - - - - - -
28/06:00pm 17.4 NW 8 10 1016.5 - - - - - - - - -
28/05:30pm 17.4 NW 8 11 1016.1 - - - - - - - - -
28/05:00pm 17.4 NNW 11 14 1015.9 - - - - - - - - -
28/04:30pm 17.6 NW 6 9 1015.7 - - - - - - - - -
28/04:00pm 17.6 NW 10 12 1015.7 - - - - - - - - -
28/03:30pm 17.7 NNW 10 12 1015.5 - - - - - - - - -
28/03:00pm 17.5 NNW 10 12 1015.3 - - - - - - - - -
28/02:30pm 17.6 NW 9 11 1015.1 - - - - - - - - -
28/02:00pm 17.4 NNW 7 9 1015.0 - - - - - - - - -
28/01:30pm 17.3 NNW 6 8 1015.0 - - - - - - - - -
28/01:00pm 17.2 NW 5 6 1015.3 - - - - - - - - -
28/12:30pm 17.1 NW 5 6 1015.5 - - - - - - - - -
28/12:00pm 17.3 NW 4 5 1015.7 - - - - - - - - -
28/11:30am 17.0 NNW 3 3 1015.8 - - - - - - - - -
28/11:00am 16.9 ESE 1 2 1015.4 - - - - - - - - -
28/10:30am 17.2 S 2 3 1015.7 - - - - - - - - -
28/10:00am 16.4 SSE 1 2 1015.5 - - - - - - - - -
28/09:30am 17.0 WSW 1 1 1015.9 - - - - - - - - -
28/09:00am 16.2 SSE 2 3 1015.6 - - - - - - - - -
28/08:30am 16.3 S 1 3 1015.5 - - - - - - - - -
28/08:00am 16.2 S 2 3 1014.9 - - - - - - - - -
28/07:30am 16.3 CALM 0 2 1014.4 - - - - - - - - -
28/07:00am 16.3 S 2 3 1013.9 - - - - - - - - -
28/06:30am 16.5 S 3 5 1013.5 - - - - - - - - -
28/06:00am 16.7 SSW 2 4 1013.6 - - - - - - - - -
28/05:30am 17.1 SSW 2 4 1013.6 - - - - - - - - -
28/05:00am 17.2 SSW 3 4 1013.5 - - - - - - - - -
28/04:30am 17.3 SW 1 2 1013.4 - - - - - - - - -
28/04:00am 16.7 S 3 4 1013.2 - - - - - - - - -
28/03:30am 17.3 SSW 2 3 1013.2 - - - - - - - - -
28/03:00am 17.6 SSW 2 3 1013.2 - - - - - - - - -
28/02:30am 17.1 SSE 3 3 1013.3 - - - - - - - - -
28/02:00am 17.3 S 1 2 1013.4 - - - - - - - - -
28/01:30am 17.7 CALM 0 1 1013.2 - - - - - - - - -
28/01:00am 17.6 S 1 2 1013.2 - - - - - - - - -
28/12:30am 18.4 SSE 3 4 1013.2 - - - - - - - - -
28/12:00am 18.3 NW 1 3 1013.4 - - - - - - - - -
 
Date/Time
EST
Temp

°C
Wind Pressure Rain
since 9am
mm
Weather Cloud Vis
km
Sea
Height
m
Swell
Dir
 
Speed
knots
Gust
knots
hPa Trend Height
m
Period
s
Dir
27/11:30pm 18.6 NW 4 8 1013.6 - - - - - - - - -
27/11:00pm 19.3 NNW 6 9 1013.9 - - - - - - - - -
27/10:30pm 19.5 NW 7 11 1014.1 - - - - - - - - -
27/10:00pm 20.4 WNW 10 19 1013.9 - - - - - - - - -
27/09:30pm 20.0 WNW 6 15 1013.9 - - - - - - - - -
27/09:00pm 19.7 WSW 1 3 1013.7 - - - - - - - - -
27/08:30pm 19.7 W 2 4 1013.8 - - - - - - - - -
27/08:00pm 20.0 WNW 4 8 1013.9 - - - - - - - - -
27/07:30pm 20.2 NW 8 14 1013.9 - - - - - - - - -
27/07:00pm 19.6 W 2 3 1014.1 - - - - - - - - -
27/06:30pm 19.6 W 3 6 1014.1 - - - - - - - - -
27/06:00pm 19.0 N 2 3 1014.0 - - - - - - - - -
27/05:30pm 19.6 NW 5 8 1013.8 - - - - - - - - -
27/05:00pm 19.9 NW 9 17 1013.8 - - - - - - - - -
27/04:30pm 19.0 N 4 8 1014.0 - - - - - - - - -
27/04:00pm 18.9 SE 1 3 1014.1 - - - - - - - - -
27/03:30pm 19.4 NNW 3 6 1014.2 - - - - - - - - -
27/03:00pm 19.3 NW 7 9 1014.3 - - - - - - - - -
27/02:30pm 20.0 WNW 5 10 1014.4 - - - - - - - - -
27/02:00pm 19.2 NW 6 9 1014.7 - - - - - - - - -
27/01:30pm 19.0 NW 10 14 1014.8 - - - - - - - - -
27/01:00pm 19.2 NW 9 14 1015.1 - - - - - - - - -
27/12:30pm 19.5 WNW 6 10 1015.5 - - - - - - - - -
27/12:00pm 19.5 WNW 6 9 1015.9 - - - - - - - - -
27/11:30am 19.2 NW 10 14 1016.3 - - - - - - - - -
27/11:00am 19.1 NW 8 13 1016.7 - - - - - - - - -
27/10:30am 19.5 NNW 14 24 1017.1 - - - - - - - - -
27/10:00am 19.7 NNW 6 11 1017.4 - - - - - - - - -
27/09:30am 19.5 NNW 7 11 1017.9 - - - - - - - - -
27/09:00am 18.9 SE 1 5 1018.2 - - - - - - - - -
27/08:30am 16.8 S 3 5 1018.4 - - - - - - - - -
27/08:00am 15.6 S 4 6 1018.5 - - - - - - - - -
27/07:30am 14.9 S 6 8 1018.5 - - - - - - - - -
27/07:00am 14.6 SSW 8 9 1018.5 - - - - - - - - -
27/06:30am 14.8 SSW 6 8 1018.7 - - - - - - - - -
27/06:00am 14.6 SSW 6 8 1018.8 - - - - - - - - -
27/05:30am 14.5 SSW 6 9 1018.9 - - - - - - - - -
27/05:00am 14.7 SSW 5 7 1019.0 - - - - - - - - -
27/04:30am 14.7 SSW 5 7 1019.1 - - - - - - - - -
27/04:00am 15.0 SSW 7 9 1019.1 - - - - - - - - -
27/03:30am 15.0 SSW 7 9 1019.5 - - - - - - - - -
27/03:00am 14.9 SSW 7 8 1019.8 - - - - - - - - -
27/02:30am 15.3 SSW 6 8 1020.1 - - - - - - - - -
27/02:00am 15.3 SSW 5 8 1020.5 - - - - - - - - -
27/01:30am 15.0 SSW 6 8 1020.9 - - - - - - - - -
27/01:00am 14.8 SSW 6 7 1021.2 - - - - - - - - -
27/12:30am 15.1 SSW 8 9 1021.4 - - - - - - - - -
27/12:00am 15.0 SSW 8 9 1021.7 - - - - - - - - -
 
Date/Time
EST
Temp

°C
Wind Pressure Rain
since 9am
mm
Weather Cloud Vis
km
Sea
Height
m
Swell
Dir
 
Speed
knots
Gust
knots
hPa Trend Height
m
Period
s
Dir
26/11:30pm 14.9 SSW 7 9 1022.0 - - - - - - - - -
26/11:00pm 15.0 SSW 6 8 1022.2 - - - - - - - - -
26/10:30pm 15.0 SSW 6 8 1022.4 - - - - - - - - -
26/10:00pm 15.1 S 5 7 1022.5 - - - - - - - - -
26/09:30pm 15.5 SSW 5 7 1022.7 - - - - - - - - -
26/09:00pm 15.5 SSW 6 7 1022.6 - - - - - - - - -
26/08:30pm 15.7 SSW 5 6 1022.7 - - - - - - - - -
26/08:00pm 15.7 SSW 5 6 1022.7 - - - - - - - - -

Other Formats:

Comma delimited format used in spreadsheet applications
http://www.bom.gov.au/fwo/IDT60701/IDT60701.95963.axf

JavaScript Object Notation format (JSON) in row-major order
http://www.bom.gov.au/fwo/IDT60701/IDT60701.95963.json